KTNU/TNU METAR and TAF weather

Enter ICAO airport designator
Station Type Date Time Source
KTNU METAR 2021/09/24 06:15 UTC NOAA

KTNU 240615Z AUTO 15006KT 10SM CLR 11/08 A2995 RMK A01


Station Type Date Time Source
KTNU Decoded METAR 2021/09/24 06:15 UTC NOAA

Newton Municipal, IA, United States (KTNU) 41-41N 093-01W
Sep 24, 2021 - 02:15 AM EDT / 2021.09.24 0615 UTC
Wind: from the SSE (150 degrees) at 7 MPH (6 KT):0
Visibility: 10 mile(s):0
Sky conditions: clear
Temperature: 51 F (11 C)
Dew Point: 46 F (8 C)
Relative Humidity: 81%
Pressure (altimeter): 29.95 in. Hg (1014 hPa)
ob: KTNU 240615Z AUTO 15006KT 10SM CLR 11/08 A2995 RMK A01
cycle: 6

Station Type Date Time Source
KTNU TAF UTC NOAA

Error!

Example: see airport list